Terminal Aerodrome Forecast
Issued by NWS Sterling, VA

Home | Current Version | Previous Version | Text Only | Print | Product List | Glossary On
Versions: 1 2 3 4 5 6 7 8 9 10 11 12 13 14 15
000
FTUS41 KLWX 172300 RRA
TAFMRB
TAF
KMRB 172345Z 1800/1824 13006KT P6SM SCT250
     FM180700 00000KT P6SM OVC100
     FM181100 13006KT P6SM OVC020
     FM181500 13005KT P6SM OVC250=

USA.gov is the U.S. government's official web portal to all federal, state and local government web resources and services.